createdAt,value
2022-09-11T00:01:57.570Z,72.15
2022-09-11T00:04:27.057Z,72.54
2022-09-11T00:06:56.435Z,71.87
2022-09-11T00:09:25.532Z,71.49
2022-09-11T00:11:55.453Z,72.41
2022-09-11T00:14:28.164Z,73.59
2022-09-11T00:16:57.429Z,73.15
2022-09-11T00:19:27.442Z,73.26
2022-09-11T00:21:57.378Z,73.19
2022-09-11T00:24:25.502Z,73.45
2022-09-11T00:26:54.730Z,73.19
2022-09-11T00:29:24.333Z,73.01
2022-09-11T00:31:54.145Z,73.81
2022-09-11T00:34:23.972Z,74.15
2022-09-11T00:36:53.595Z,73.91
2022-09-11T00:39:22.875Z,73.96
2022-09-11T00:41:53.545Z,74.63
2022-09-11T00:45:00.452Z,73.58
2022-09-11T00:47:31.218Z,74.41
2022-09-11T00:50:08.254Z,75.09
2022-09-11T00:52:39.977Z,76.00
2022-09-11T00:55:13.063Z,74.78
2022-09-11T00:57:45.522Z,75.64
2022-09-11T01:00:15.332Z,75.27
2022-09-11T01:02:52.339Z,75.51
2022-09-11T01:05:22.956Z,75.78
2022-09-11T01:07:54.619Z,75.87
2022-09-11T01:10:29.722Z,76.02
2022-09-11T01:13:04.930Z,76.01
2022-09-11T01:15:40.346Z,75.80
2022-09-11T01:18:16.696Z,75.98
2022-09-11T01:21:02.109Z,75.39
2022-09-11T01:23:50.811Z,75.65
2022-09-11T01:26:40.190Z,75.93
2022-09-11T01:29:19.087Z,75.20
2022-09-11T01:31:54.571Z,75.38
2022-09-11T01:34:34.440Z,75.81
2022-09-11T01:37:07.047Z,74.84
2022-09-11T01:39:48.035Z,76.19
2022-09-11T01:42:19.053Z,76.07
2022-09-11T01:44:52.218Z,76.69
2022-09-11T01:47:21.749Z,76.75
2022-09-11T01:49:55.210Z,76.07
2022-09-11T01:52:32.523Z,76.13
2022-09-11T01:55:03.474Z,75.96
2022-09-11T01:57:34.667Z,75.65
2022-09-11T02:00:12.113Z,75.66
2022-09-11T02:02:57.704Z,76.82
2022-09-11T02:05:31.506Z,76.74
2022-09-11T02:08:04.176Z,76.39
2022-09-11T02:10:37.317Z,76.64
2022-09-11T02:13:09.988Z,76.87
2022-09-11T02:15:47.192Z,76.64
2022-09-11T02:18:21.111Z,76.83
2022-09-11T02:20:51.460Z,76.58
2022-09-11T02:23:19.660Z,76.40
2022-09-11T02:25:49.222Z,76.83
2022-09-11T02:28:20.675Z,76.15
2022-09-11T02:30:51.200Z,76.85
2022-09-11T02:33:32.076Z,77.19
2022-09-11T02:36:13.835Z,76.35
2022-09-11T02:38:53.639Z,76.02
2022-09-11T02:41:25.578Z,76.33
2022-09-11T02:44:00.572Z,76.01
2022-09-11T02:46:46.611Z,75.36
2022-09-11T02:49:22.061Z,76.65
2022-09-11T02:51:56.500Z,76.86
2022-09-11T02:54:30.981Z,76.64
2022-09-11T02:57:05.050Z,77.00
2022-09-11T02:59:38.236Z,76.85
2022-09-11T03:02:14.567Z,76.88
2022-09-11T03:04:45.634Z,77.02
2022-09-11T03:07:17.684Z,77.65
2022-09-11T03:09:47.065Z,77.82
2022-09-11T03:12:22.227Z,77.70
2022-09-11T03:14:52.782Z,77.11
2022-09-11T03:17:24.361Z,77.60
2022-09-11T03:19:52.767Z,76.92
2022-09-11T03:22:21.092Z,77.42
2022-09-11T03:24:49.754Z,77.57
2022-09-11T03:27:19.779Z,77.58
2022-09-11T03:29:48.968Z,77.81
2022-09-11T03:32:17.869Z,77.51
2022-09-11T03:34:49.027Z,78.11
2022-09-11T03:37:18.293Z,77.69
2022-09-11T03:39:49.263Z,77.63
2022-09-11T03:42:18.043Z,77.90
2022-09-11T03:44:47.423Z,77.25
2022-09-11T03:47:15.828Z,77.39
2022-09-11T03:49:45.121Z,76.96
2022-09-11T03:52:15.364Z,77.08
2022-09-11T03:54:47.763Z,77.53
2022-09-11T03:57:16.865Z,77.71
2022-09-11T03:59:47.351Z,76.95
2022-09-11T04:02:15.882Z,77.52
2022-09-11T04:04:44.454Z,77.02
2022-09-11T04:07:12.813Z,77.30
2022-09-11T04:09:47.554Z,77.46
2022-09-11T04:12:16.271Z,77.22
2022-09-11T04:14:48.424Z,76.86
2022-09-11T04:17:17.890Z,76.94
2022-09-11T04:19:47.410Z,76.24
2022-09-11T04:22:15.679Z,76.73
2022-09-11T04:24:45.393Z,76.85
2022-09-11T04:27:14.829Z,77.57
2022-09-11T04:29:47.196Z,77.31
2022-09-11T04:32:17.296Z,77.25
2022-09-11T04:34:46.885Z,77.20
2022-09-11T04:37:16.714Z,77.26
2022-09-11T04:39:47.163Z,77.93
2022-09-11T04:42:16.956Z,78.37
2022-09-11T04:44:47.186Z,79.10
2022-09-11T04:47:16.212Z,78.65
2022-09-11T04:49:47.232Z,79.11
2022-09-11T04:52:15.939Z,78.09
2022-09-11T04:54:44.181Z,77.71
2022-09-11T04:57:14.541Z,77.61
2022-09-11T04:59:44.133Z,77.25
2022-09-11T05:02:15.224Z,77.49
2022-09-11T05:04:48.389Z,77.07
2022-09-11T05:07:17.065Z,76.43
2022-09-11T05:09:50.042Z,76.66
2022-09-11T05:12:21.278Z,76.85
2022-09-11T05:14:51.292Z,75.45
2022-09-11T05:17:19.920Z,75.77
2022-09-11T05:19:50.444Z,76.20
2022-09-11T05:22:23.282Z,76.21
2022-09-11T05:24:57.534Z,76.28
2022-09-11T05:27:27.853Z,76.25
2022-09-11T05:29:58.077Z,75.76
2022-09-11T05:32:26.158Z,76.36
2022-09-11T05:34:55.558Z,75.37
2022-09-11T05:37:24.803Z,75.50
2022-09-11T05:39:57.276Z,76.01
2022-09-11T05:42:28.758Z,75.04
2022-09-11T05:44:57.962Z,76.38
2022-09-11T05:47:27.875Z,75.38
2022-09-11T05:49:58.014Z,75.73
2022-09-11T05:52:26.983Z,75.71
2022-09-11T05:54:56.824Z,76.43
2022-09-11T05:57:27.429Z,77.09
2022-09-11T05:59:56.940Z,76.71
2022-09-11T06:02:25.387Z,77.01
2022-09-11T06:04:56.789Z,77.26
2022-09-11T06:07:26.909Z,78.32
2022-09-11T06:09:58.701Z,77.80
2022-09-11T06:12:33.609Z,77.24
2022-09-11T06:15:02.149Z,76.96
2022-09-11T06:17:35.068Z,77.08
2022-09-11T06:20:07.046Z,76.12
2022-09-11T06:22:37.773Z,76.30
2022-09-11T06:25:08.370Z,76.29
2022-09-11T06:27:37.927Z,75.41
2022-09-11T06:30:09.123Z,76.53
2022-09-11T06:32:40.304Z,76.29
2022-09-11T06:35:10.723Z,76.70
2022-09-11T06:37:38.875Z,78.16
2022-09-11T06:40:13.467Z,79.87
2022-09-11T06:42:47.523Z,79.23
2022-09-11T06:45:17.407Z,80.23
2022-09-11T06:47:47.362Z,80.41
2022-09-11T06:50:16.025Z,80.87
2022-09-11T06:53:00.412Z,80.94
2022-09-11T06:55:32.207Z,82.26
2022-09-11T06:58:09.251Z,81.31
2022-09-11T07:00:38.255Z,81.15
2022-09-11T07:03:08.217Z,81.95
2022-09-11T07:05:40.350Z,82.15
2022-09-11T07:08:10.703Z,80.70
2022-09-11T07:10:39.356Z,80.29
2022-09-11T07:13:10.296Z,80.19
2022-09-11T07:15:40.818Z,79.39
2022-09-11T07:18:11.630Z,78.74
2022-09-11T07:20:40.807Z,78.92
2022-09-11T07:23:09.571Z,78.08
2022-09-11T07:25:49.865Z,77.52
2022-09-11T07:28:20.515Z,79.79
2022-09-11T07:30:50.179Z,79.61
2022-09-11T07:33:20.462Z,77.85
2022-09-11T07:35:49.123Z,78.76
2022-09-11T07:38:18.998Z,78.84
2022-09-11T07:40:48.152Z,77.70
2022-09-11T07:43:17.721Z,77.77
2022-09-11T07:45:48.494Z,76.31
2022-09-11T07:48:16.755Z,77.05
2022-09-11T07:50:56.418Z,76.37
2022-09-11T07:53:26.525Z,75.49
2022-09-11T07:55:56.185Z,74.75
2022-09-11T07:58:25.185Z,75.07
2022-09-11T08:01:00.098Z,72.85
2022-09-11T08:03:31.198Z,72.49
2022-09-11T08:06:00.957Z,72.30
2022-09-11T08:08:30.896Z,70.87
2022-09-11T08:11:05.533Z,71.13
2022-09-11T08:13:34.310Z,70.41
2022-09-11T08:16:05.625Z,70.21
2022-09-11T08:18:35.324Z,70.15
2022-09-11T08:21:12.550Z,70.12
2022-09-11T08:23:42.971Z,69.66
2022-09-11T08:26:17.476Z,69.19
2022-09-11T08:28:46.511Z,69.21
2022-09-11T08:31:18.789Z,70.03
2022-09-11T08:33:49.479Z,69.76
2022-09-11T08:36:19.150Z,69.61
2022-09-11T08:38:48.237Z,69.37
2022-09-11T08:41:29.639Z,69.44
2022-09-11T08:44:01.830Z,68.95
2022-09-11T08:46:38.176Z,69.95
2022-09-11T08:49:14.218Z,69.01
2022-09-11T08:51:44.919Z,69.87
2022-09-11T08:54:27.825Z,68.28
2022-09-11T08:57:08.698Z,68.35
2022-09-11T08:59:50.375Z,68.04
2022-09-11T09:02:34.313Z,68.79
2022-09-11T09:05:14.629Z,68.85
2022-09-11T09:07:54.811Z,68.13
2022-09-11T09:10:35.791Z,69.17
2022-09-11T09:13:19.851Z,68.66
2022-09-11T09:15:53.021Z,69.07
2022-09-11T09:18:29.412Z,69.20
2022-09-11T09:21:02.791Z,68.32
2022-09-11T09:23:37.207Z,68.74
2022-09-11T09:26:07.289Z,67.89
2022-09-11T09:28:45.706Z,68.17
2022-09-11T09:31:18.549Z,67.14
2022-09-11T09:33:51.300Z,67.08
2022-09-11T09:36:22.580Z,67.75
2022-09-11T09:38:56.039Z,66.29
2022-09-11T09:41:52.344Z,65.12
2022-09-11T09:44:30.822Z,63.57
2022-09-11T09:46:59.485Z,64.59
2022-09-11T09:49:33.124Z,68.20
2022-09-11T09:52:07.425Z,71.20
2022-09-11T09:54:37.415Z,75.01
2022-09-11T09:57:10.515Z,77.36
2022-09-11T09:59:44.749Z,80.97
2022-09-11T10:02:13.677Z,82.15
2022-09-11T10:04:46.306Z,83.24
2022-09-11T10:07:20.818Z,83.72
2022-09-11T10:09:52.397Z,85.68
2022-09-11T10:12:24.596Z,86.43
2022-09-11T10:15:00.115Z,88.97
2022-09-11T10:17:33.459Z,88.15
2022-09-11T10:20:23.145Z,86.84
2022-09-11T10:22:53.085Z,87.55
2022-09-11T10:25:23.604Z,86.01
2022-09-11T10:28:02.319Z,88.55
2022-09-11T10:30:34.388Z,85.25
2022-09-11T10:33:08.568Z,85.13
2022-09-11T10:35:38.919Z,85.67
2022-09-11T10:38:18.353Z,83.28
2022-09-11T10:41:08.005Z,81.84
2022-09-11T10:43:47.400Z,81.32
2022-09-11T10:46:25.785Z,82.36
2022-09-11T10:48:56.811Z,85.02
2022-09-11T10:51:28.263Z,83.99
2022-09-11T10:54:08.431Z,83.13
2022-09-11T10:57:00.254Z,83.44
2022-09-11T10:59:36.769Z,82.86
2022-09-11T11:02:05.470Z,83.39
2022-09-11T11:04:35.451Z,83.20
2022-09-11T11:07:12.168Z,82.73
2022-09-11T11:09:54.556Z,82.05
2022-09-11T11:12:43.266Z,80.59
2022-09-11T11:15:34.900Z,80.15
2022-09-11T11:18:19.791Z,79.17
2022-09-11T11:20:55.500Z,80.04
2022-09-11T11:23:43.265Z,79.31
2022-09-11T11:26:27.706Z,78.66
2022-09-11T11:29:10.357Z,79.88
2022-09-11T11:31:56.449Z,77.97
2022-09-11T11:34:37.215Z,76.37
2022-09-11T11:37:09.137Z,75.85
2022-09-11T11:39:47.416Z,76.20
2022-09-11T11:42:22.779Z,77.52
2022-09-11T11:44:52.646Z,76.43
2022-09-11T11:47:26.242Z,73.97
2022-09-11T11:50:01.258Z,72.44
2022-09-11T11:52:40.290Z,72.16
2022-09-11T11:55:17.960Z,70.21
2022-09-11T11:58:00.541Z,68.25
2022-09-11T12:00:31.635Z,69.30
2022-09-11T12:03:04.593Z,67.83
2022-09-11T12:05:37.603Z,67.50
2022-09-11T12:08:13.693Z,68.75
2022-09-11T12:10:50.644Z,68.07
2022-09-11T12:13:20.779Z,66.59
2022-09-11T12:16:03.221Z,68.61
2022-09-11T12:18:31.772Z,69.13
2022-09-11T12:21:35.717Z,69.13
2022-09-11T12:24:14.170Z,70.37
2022-09-11T12:26:49.406Z,72.05
2022-09-11T12:29:55.745Z,72.35
2022-09-11T12:32:29.229Z,74.56
2022-09-11T12:35:04.338Z,74.19
2022-09-11T12:37:37.991Z,74.27
2022-09-11T12:40:09.341Z,74.11
2022-09-11T12:42:57.851Z,73.66
2022-09-11T12:45:36.394Z,74.13
2022-09-11T12:48:11.358Z,71.88
2022-09-11T12:50:39.912Z,71.55
2022-09-11T12:53:17.647Z,70.22
2022-09-11T12:55:53.901Z,70.87
2022-09-11T12:58:31.197Z,69.04
2022-09-11T13:01:18.844Z,69.53
2022-09-11T13:03:56.211Z,69.26
2022-09-11T13:06:25.758Z,71.63
2022-09-11T13:09:02.843Z,69.62
2022-09-11T13:11:48.123Z,70.91
2022-09-11T13:14:56.510Z,70.38
2022-09-11T13:17:27.212Z,70.32
2022-09-11T13:19:59.681Z,69.23
2022-09-11T13:22:31.415Z,69.97
2022-09-11T13:25:12.790Z,68.48
2022-09-11T13:27:42.245Z,66.66
2022-09-11T13:30:15.133Z,65.36
2022-09-11T13:32:44.530Z,63.97
2022-09-11T13:35:17.121Z,62.51
2022-09-11T13:37:51.748Z,62.02
2022-09-11T13:40:25.677Z,61.84
2022-09-11T13:42:55.500Z,61.36
2022-09-11T13:45:26.446Z,62.37
2022-09-11T13:47:56.342Z,62.72
2022-09-11T13:50:24.872Z,64.51
2022-09-11T13:52:55.177Z,62.66
2022-09-11T13:55:27.128Z,63.83
2022-09-11T13:57:58.734Z,63.05
2022-09-11T14:00:46.462Z,63.91
2022-09-11T14:03:23.268Z,63.12
2022-09-11T14:05:55.087Z,63.16
2022-09-11T14:08:28.555Z,62.55
2022-09-11T14:11:00.993Z,63.79
2022-09-11T14:13:33.182Z,62.98
2022-09-11T14:16:07.588Z,64.19
2022-09-11T14:18:42.848Z,63.29
2022-09-11T14:21:15.004Z,64.34
2022-09-11T14:23:48.290Z,63.96
2022-09-11T14:26:18.999Z,63.53
2022-09-11T14:29:02.810Z,63.51
2022-09-11T14:31:37.984Z,62.73
2022-09-11T14:34:15.250Z,62.17
2022-09-11T14:36:47.678Z,60.88
2022-09-11T14:39:21.072Z,59.56
2022-09-11T14:41:50.382Z,62.89
2022-09-11T14:44:20.038Z,62.52
2022-09-11T14:46:50.941Z,63.46
2022-09-11T14:49:19.754Z,63.51
2022-09-11T14:51:54.919Z,63.97
2022-09-11T14:54:24.095Z,63.47
2022-09-11T14:56:56.814Z,64.44
2022-09-11T14:59:25.809Z,64.53
2022-09-11T15:01:59.660Z,63.40
2022-09-11T15:04:29.886Z,63.21
2022-09-11T15:06:59.988Z,64.58
2022-09-11T15:09:29.209Z,64.37
2022-09-11T15:12:01.186Z,64.78
2022-09-11T15:14:54.834Z,64.44
2022-09-11T15:17:25.421Z,65.02
2022-09-11T15:19:54.701Z,65.78
2022-09-11T15:22:23.292Z,65.84
2022-09-11T15:24:51.741Z,66.50
2022-09-11T15:27:22.956Z,64.44
2022-09-11T15:29:51.829Z,64.60
2022-09-11T15:32:21.654Z,64.58
2022-09-11T15:34:54.864Z,64.45
2022-09-11T15:37:23.814Z,63.76
2022-09-11T15:39:52.878Z,62.58
2022-09-11T15:42:22.341Z,62.70
2022-09-11T15:44:51.993Z,64.90
2022-09-11T15:47:22.393Z,64.80
2022-09-11T15:49:52.088Z,62.63
2022-09-11T15:52:21.563Z,65.83
2022-09-11T15:54:51.148Z,71.24
2022-09-11T15:57:20.567Z,74.23
2022-09-11T15:59:50.079Z,76.68
2022-09-11T16:02:20.925Z,81.37
2022-09-11T16:04:53.731Z,84.16
2022-09-11T16:07:22.482Z,83.72
2022-09-11T16:09:50.911Z,85.33
2022-09-11T16:12:20.753Z,84.44
2022-09-11T16:14:50.349Z,82.77
2022-09-11T16:17:21.721Z,84.03
2022-09-11T16:19:53.806Z,82.35
2022-09-11T16:22:21.952Z,82.77
2022-09-11T16:24:50.787Z,82.07
2022-09-11T16:27:20.503Z,85.23
2022-09-11T16:30:20.607Z,86.16
2022-09-11T16:32:39.319Z,85.78
2022-09-11T16:35:13.466Z,84.29
2022-09-11T16:37:42.089Z,83.70
2022-09-11T16:40:11.836Z,83.31
2022-09-11T16:42:40.182Z,82.22
2022-09-11T16:45:10.443Z,82.78
2022-09-11T16:47:38.731Z,82.65
2022-09-11T16:50:08.694Z,84.47
2022-09-11T16:52:39.187Z,83.85
2022-09-11T16:55:10.795Z,84.98
2022-09-11T16:57:39.467Z,85.20
2022-09-11T17:00:10.877Z,86.37
2022-09-11T17:02:39.244Z,87.02
2022-09-11T17:05:09.898Z,85.76
2022-09-11T17:07:44.001Z,86.08
2022-09-11T17:10:12.905Z,86.38
2022-09-11T17:12:44.174Z,88.98
2022-09-11T17:15:13.220Z,88.84
2022-09-11T17:17:45.711Z,87.88
2022-09-11T17:20:16.580Z,87.65
2022-09-11T17:22:54.882Z,88.12
2022-09-11T17:25:26.959Z,87.54
2022-09-11T17:27:56.514Z,87.38
2022-09-11T17:30:25.369Z,89.33
2022-09-11T17:32:53.731Z,89.71
2022-09-11T17:35:24.606Z,89.70
2022-09-11T17:37:55.947Z,89.38
2022-09-11T17:40:36.899Z,90.88
2022-09-11T17:43:07.500Z,91.24
2022-09-11T17:45:40.173Z,90.71
2022-09-11T17:48:10.287Z,92.46
2022-09-11T17:50:40.187Z,90.65
2022-09-11T17:53:09.926Z,91.76
2022-09-11T17:55:41.885Z,93.99
2022-09-11T17:58:11.254Z,92.12
2022-09-11T18:01:16.707Z,91.83
2022-09-11T18:03:46.122Z,91.86
2022-09-11T18:06:24.384Z,91.23
2022-09-11T18:09:01.985Z,92.13
2022-09-11T18:11:32.270Z,91.61
2022-09-11T18:14:02.514Z,92.65
2022-09-11T18:16:32.229Z,90.68
2022-09-11T18:19:05.643Z,91.74
2022-09-11T18:21:38.325Z,91.78
2022-09-11T18:24:19.879Z,92.96
2022-09-11T18:27:00.892Z,92.92
2022-09-11T18:29:33.554Z,91.07
2022-09-11T18:32:04.386Z,92.66
2022-09-11T18:34:33.610Z,92.87
2022-09-11T18:37:03.094Z,92.26
2022-09-11T18:39:35.526Z,91.45
2022-09-11T18:42:07.554Z,91.39
2022-09-11T18:44:37.824Z,91.86
2022-09-11T18:47:08.964Z,90.84
2022-09-11T18:49:39.994Z,91.72
2022-09-11T18:52:11.027Z,90.69
2022-09-11T18:54:43.439Z,90.74
2022-09-11T18:57:15.390Z,89.25
2022-09-11T18:59:44.542Z,89.59
2022-09-11T19:02:13.436Z,89.17
2022-09-11T19:04:43.752Z,89.29
2022-09-11T19:07:16.869Z,89.06
2022-09-11T19:09:49.398Z,88.99
2022-09-11T19:12:21.292Z,88.61
2022-09-11T19:14:50.193Z,88.58
2022-09-11T19:17:20.091Z,88.91
2022-09-11T19:19:49.409Z,88.47
2022-09-11T19:22:23.014Z,87.59
2022-09-11T19:24:57.192Z,88.39
2022-09-11T19:27:32.158Z,88.04
2022-09-11T19:30:06.520Z,87.60
2022-09-11T19:32:35.113Z,87.10
2022-09-11T19:35:05.414Z,87.28
2022-09-11T19:37:34.103Z,87.00
2022-09-11T19:40:07.436Z,87.63
2022-09-11T19:42:38.027Z,87.76
2022-09-11T19:45:09.724Z,87.76
2022-09-11T19:47:38.255Z,87.57
2022-09-11T19:50:09.677Z,87.70
2022-09-11T19:52:38.056Z,87.28
2022-09-11T19:55:09.685Z,87.41
2022-09-11T19:57:38.116Z,87.85
2022-09-11T20:00:16.882Z,87.24
2022-09-11T20:02:46.600Z,87.10
2022-09-11T20:05:15.289Z,86.73
2022-09-11T20:07:47.876Z,86.03
2022-09-11T20:10:25.630Z,86.06
2022-09-11T20:12:56.027Z,86.03
2022-09-11T20:15:25.285Z,87.04
2022-09-11T20:17:55.155Z,87.66
2022-09-11T20:20:24.150Z,87.12
2022-09-11T20:22:56.161Z,86.11
2022-09-11T20:25:29.300Z,86.13
2022-09-11T20:28:03.311Z,87.33
2022-09-11T20:30:35.827Z,86.46
2022-09-11T20:33:04.791Z,86.79
2022-09-11T20:35:35.758Z,86.24
2022-09-11T20:38:05.904Z,86.19
2022-09-11T20:40:38.317Z,85.96
2022-09-11T20:43:06.674Z,87.01
2022-09-11T20:45:36.353Z,86.87
2022-09-11T20:48:05.904Z,85.72
2022-09-11T20:50:37.608Z,85.99
2022-09-11T20:53:06.917Z,85.89
2022-09-11T20:55:38.064Z,86.09
2022-09-11T20:58:09.864Z,86.42
2022-09-11T21:00:43.429Z,86.69
2022-09-11T21:03:12.270Z,87.13
2022-09-11T21:05:42.485Z,88.22
2022-09-11T21:08:12.493Z,86.95
2022-09-11T21:10:46.663Z,86.61
2022-09-11T21:13:16.779Z,87.03
2022-09-11T21:15:48.192Z,86.83
2022-09-11T21:18:18.912Z,86.42
2022-09-11T21:20:55.342Z,86.72
2022-09-11T21:23:26.838Z,87.24
2022-09-11T21:25:57.225Z,85.60
2022-09-11T21:28:28.394Z,85.06
2022-09-11T21:30:59.920Z,85.61
2022-09-11T21:33:34.264Z,85.33
2022-09-11T21:36:04.597Z,84.34
2022-09-11T21:38:32.950Z,84.16
2022-09-11T21:41:06.860Z,83.43
2022-09-11T21:43:35.436Z,83.84
2022-09-11T21:46:06.412Z,84.86
2022-09-11T21:48:35.989Z,85.22
2022-09-11T21:51:10.292Z,85.10
2022-09-11T21:53:39.590Z,84.17
2022-09-11T21:56:20.668Z,83.90
2022-09-11T21:58:51.340Z,84.35
2022-09-11T22:01:21.129Z,84.35
2022-09-11T22:03:50.622Z,84.25
2022-09-11T22:06:21.800Z,84.60
2022-09-11T22:08:52.622Z,84.86
2022-09-11T22:11:22.917Z,82.73
2022-09-11T22:13:53.300Z,83.57
2022-09-11T22:16:23.483Z,84.65
2022-09-11T22:18:55.322Z,84.16
2022-09-11T22:21:24.527Z,84.21
2022-09-11T22:23:53.377Z,83.99
2022-09-11T22:26:24.756Z,82.95
2022-09-11T22:28:54.480Z,83.97
2022-09-11T22:31:25.049Z,84.11
2022-09-11T22:33:55.265Z,83.27
2022-09-11T22:36:26.258Z,81.83
2022-09-11T22:38:56.286Z,82.64
2022-09-11T22:41:27.221Z,82.67
2022-09-11T22:43:56.562Z,82.52
2022-09-11T22:46:26.856Z,82.85
2022-09-11T22:48:56.920Z,83.20
2022-09-11T22:51:25.444Z,82.56
2022-09-11T22:53:54.595Z,81.70
2022-09-11T22:56:23.514Z,82.72
2022-09-11T22:58:54.893Z,82.49
2022-09-11T23:01:23.731Z,83.03
2022-09-11T23:03:54.021Z,82.61
2022-09-11T23:06:40.516Z,82.50
2022-09-11T23:09:12.787Z,81.84
2022-09-11T23:11:43.707Z,82.08
2022-09-11T23:14:15.396Z,82.44
2022-09-11T23:16:46.741Z,82.93
2022-09-11T23:19:16.216Z,82.78
2022-09-11T23:21:44.943Z,82.90
2022-09-11T23:24:14.605Z,82.96
2022-09-11T23:26:45.890Z,82.57
2022-09-11T23:29:15.682Z,83.12
2022-09-11T23:31:47.610Z,83.04
2022-09-11T23:34:17.783Z,83.45
2022-09-11T23:36:49.097Z,82.67
2022-09-11T23:39:18.318Z,82.70
2022-09-11T23:41:46.418Z,82.91
2022-09-11T23:44:17.772Z,82.96
2022-09-11T23:46:48.779Z,83.15
2022-09-11T23:49:18.321Z,82.08
2022-09-11T23:51:48.395Z,82.20
2022-09-11T23:54:17.825Z,81.61
2022-09-11T23:56:48.889Z,81.24
2022-09-11T23:59:19.821Z,81.61
